Time;durP1;ratioP1;P1;durP2;ratioP2;P2;SDS_P1;SDS_P2;PMS_P1;PMS_P2;Temp;Humidity;BMP_temperature;BMP_pressure;BME280_temperature;BME280_humidity;BME280_pressure;Samples;Min_cycle;Max_cycle;Signal;HPM_P1;HPM_P2
2023/03/16 00:02:17;;;;;;;8.10;3.50;;;3.50;99.90;;;;;;5068255;28;20047;-70
2023/03/16 00:04:46;;;;;;;9.35;4.07;;;3.50;99.90;;;;;;5081061;28;20032;-69
2023/03/16 00:07:12;;;;;;;8.52;3.70;;;3.60;99.90;;;;;;5070113;28;20056;-70
2023/03/16 00:09:39;;;;;;;7.68;4.45;;;3.60;99.90;;;;;;5082932;28;20036;-70
2023/03/16 00:12:16;;;;;;;8.15;3.70;;;3.60;99.90;;;;;;5069553;28;20055;-71
2023/03/16 00:14:44;;;;;;;7.22;3.83;;;3.60;99.90;;;;;;5087702;28;20032;-71
2023/03/16 00:17:17;;;;;;;8.55;3.95;;;3.70;99.90;;;;;;5083670;28;20051;-71
2023/03/16 00:19:53;;;;;;;6.32;3.38;;;3.70;99.90;;;;;;5088056;28;20152;-70
2023/03/16 00:22:21;;;;;;;9.02;3.67;;;3.70;99.90;;;;;;5077465;28;20164;-70
2023/03/16 00:24:46;;;;;;;10.13;4.13;;;3.70;99.90;;;;;;5067542;28;20048;-70
2023/03/16 00:27:14;;;;;;;11.68;4.18;;;3.70;99.90;;;;;;5068337;28;20400;-70
2023/03/16 00:29:45;;;;;;;7.45;4.10;;;3.70;99.90;;;;;;5068955;28;20119;-70
2023/03/16 00:32:12;;;;;;;7.88;3.78;;;3.80;99.90;;;;;;5087751;28;20079;-70
2023/03/16 00:34:38;;;;;;;10.05;4.45;;;3.80;99.90;;;;;;5085851;28;20043;-71
2023/03/16 00:37:04;;;;;;;8.32;3.90;;;3.80;99.90;;;;;;5078597;28;20036;-70
2023/03/16 00:39:34;;;;;;;6.15;3.70;;;3.80;99.90;;;;;;5085804;28;20126;-70
2023/03/16 00:42:03;;;;;;;8.88;3.72;;;3.90;99.90;;;;;;5078288;28;20044;-71
2023/03/16 00:44:28;;;;;;;7.75;3.60;;;3.90;99.90;;;;;;5065669;28;20099;-70
2023/03/16 00:46:54;;;;;;;10.30;3.80;;;4.00;99.90;;;;;;5081294;28;20435;-70
2023/03/16 00:49:21;;;;;;;7.85;3.65;;;4.00;99.90;;;;;;5051407;28;20040;-71
2023/03/16 00:51:46;;;;;;;10.27;4.03;;;4.00;99.90;;;;;;5076867;28;20433;-71
2023/03/16 00:54:12;;;;;;;7.05;3.40;;;4.00;99.90;;;;;;5050953;28;20043;-70
2023/03/16 00:56:38;;;;;;;10.68;3.60;;;4.10;99.90;;;;;;5086950;28;20036;-71
2023/03/16 00:59:04;;;;;;;7.05;3.40;;;4.10;99.90;;;;;;5080354;28;20093;-70
2023/03/16 01:01:31;;;;;;;7.78;3.85;;;4.10;99.90;;;;;;5080772;28;20459;-71
2023/03/16 01:03:58;;;;;;;8.52;4.43;;;4.10;99.90;;;;;;5080827;28;20123;-71
2023/03/16 01:06:24;;;;;;;6.65;3.78;;;4.10;99.90;;;;;;5067407;28;20047;-70
2023/03/16 01:08:51;;;;;;;7.53;3.72;;;4.20;99.90;;;;;;5082442;28;20036;-71
2023/03/16 01:11:19;;;;;;;7.90;4.28;;;4.20;99.90;;;;;;5066583;28;20039;-71
2023/03/16 01:13:46;;;;;;;8.80;4.35;;;4.20;99.90;;;;;;5069017;28;20085;-71
2023/03/16 01:16:12;;;;;;;9.40;4.25;;;4.20;99.90;;;;;;5086976;28;20101;-70
2023/03/16 01:18:38;;;;;;;8.50;4.03;;;4.20;99.90;;;;;;5081504;28;20075;-71
2023/03/16 01:21:06;;;;;;;10.80;4.05;;;4.20;99.90;;;;;;5085807;28;20083;-70
2023/03/16 01:23:32;;;;;;;8.77;4.50;;;4.20;99.90;;;;;;5081904;28;20032;-70
2023/03/16 01:25:58;;;;;;;9.60;4.40;;;4.20;99.90;;;;;;5082380;28;20110;-71
2023/03/16 01:28:27;;;;;;;8.23;4.22;;;4.20;99.90;;;;;;5086489;28;20109;-71
2023/03/16 01:30:57;;;;;;;11.02;4.07;;;4.10;99.90;;;;;;5086197;28;20036;-71
2023/03/16 01:33:27;;;;;;;8.27;4.22;;;4.10;99.90;;;;;;5067845;28;20048;-71
2023/03/16 01:35:55;;;;;;;8.00;4.32;;;4.10;99.90;;;;;;5084813;28;20125;-70
2023/03/16 01:38:21;;;;;;;6.53;3.83;;;4.00;99.90;;;;;;5059928;28;20032;-71
2023/03/16 01:40:52;;;;;;;9.10;4.45;;;4.00;99.90;;;;;;5078840;28;20036;-70
2023/03/16 01:43:19;;;;;;;10.02;4.10;;;4.00;99.90;;;;;;5077667;28;20040;-71
2023/03/16 01:46:03;;;;;;;11.45;5.35;;;4.00;99.90;;;;;;5081753;28;20094;-70
2023/03/16 01:48:36;;;;;;;5.78;3.83;;;3.90;99.90;;;;;;5083111;28;20039;-71
2023/03/16 01:51:22;;;;;;;6.47;4.05;;;3.90;99.90;;;;;;5067614;28;20044;-70
2023/03/16 01:53:56;;;;;;;7.10;4.63;;;3.80;99.90;;;;;;5081012;28;20039;-70
2023/03/16 01:56:24;;;;;;;;;;;3.80;99.90;;;;;;5085730;28;20130;-70
2023/03/16 01:58:57;;;;;;;7.95;4.07;;;3.80;99.90;;;;;;5046800;28;19923;-71
2023/03/16 02:01:25;;;;;;;7.93;4.18;;;3.70;99.90;;;;;;5083728;28;20036;-70
2023/03/16 02:03:54;;;;;;;8.48;4.40;;;3.70;99.90;;;;;;5080366;28;20093;-71
2023/03/16 02:06:22;;;;;;;9.75;4.70;;;3.60;99.90;;;;;;5066877;28;20044;-70
2023/03/16 02:08:49;;;;;;;11.25;4.88;;;3.60;99.90;;;;;;5082688;28;20039;-71
2023/03/16 02:11:16;;;;;;;9.77;4.32;;;3.60;99.90;;;;;;5072134;28;20506;-70
2023/03/16 02:13:46;;;;;;;9.65;4.78;;;3.60;99.90;;;;;;5083688;28;20445;-71
2023/03/16 02:16:18;;;;;;;10.80;5.07;;;3.70;99.90;;;;;;5051141;28;20048;-71
2023/03/16 02:18:45;;;;;;;8.90;4.90;;;3.70;99.90;;;;;;5064997;28;20055;-70
2023/03/16 02:21:18;;;;;;;9.45;4.70;;;3.70;99.90;;;;;;5083705;28;20427;-70
2023/03/16 02:23:44;;;;;;;8.73;4.97;;;3.70;99.90;;;;;;5084874;28;20106;-70
2023/03/16 02:26:33;;;;;;;9.88;5.28;;;3.70;99.90;;;;;;5081785;28;20044;-71
2023/03/16 02:29:18;;;;;;;11.23;5.20;;;3.70;99.90;;;;;;5082335;28;20416;-71
2023/03/16 02:31:43;;;;;;;11.30;5.22;;;3.80;99.90;;;;;;5082688;28;20548;-71
2023/03/16 02:34:12;;;;;;;10.63;5.13;;;3.90;99.90;;;;;;5079636;28;20040;-70
2023/03/16 02:36:40;;;;;;;10.13;4.97;;;3.90;99.90;;;;;;5064381;28;20095;-70
2023/03/16 02:39:06;;;;;;;11.40;5.68;;;3.90;99.90;;;;;;5047123;28;20497;-70
2023/03/16 02:41:31;;;;;;;10.77;5.50;;;3.90;99.90;;;;;;5083848;28;20179;-70
2023/03/16 02:44:23;;;;;;;11.35;5.43;;;4.00;99.90;;;;;;5084036;28;20047;-71
2023/03/16 02:46:51;;;;;;;7.60;4.63;;;4.00;99.90;;;;;;5072782;28;20048;-70
2023/03/16 02:49:33;;;;;;;11.50;5.78;;;4.00;99.90;;;;;;5061701;28;20078;-70
2023/03/16 02:51:58;;;;;;;12.02;5.20;;;4.00;99.90;;;;;;5058990;28;20127;-70
2023/03/16 02:54:24;;;;;;;8.90;4.72;;;4.10;99.90;;;;;;5085902;28;20474;-70
2023/03/16 02:56:50;;;;;;;8.40;5.47;;;4.10;99.90;;;;;;5065278;28;20039;-71
2023/03/16 02:59:16;;;;;;;11.07;5.90;;;4.00;99.90;;;;;;5080562;28;20066;-71
2023/03/16 03:01:41;;;;;;;12.45;5.95;;;4.10;99.90;;;;;;5066100;28;20075;-70
2023/03/16 03:04:07;;;;;;;10.20;5.35;;;4.10;99.90;;;;;;5078033;28;20496;-71
2023/03/16 03:06:33;;;;;;;10.50;6.20;;;4.10;99.90;;;;;;5080627;28;20074;-70
2023/03/16 03:09:00;;;;;;;10.35;5.88;;;4.10;99.90;;;;;;5082219;28;20107;-71
2023/03/16 03:11:27;;;;;;;11.45;5.80;;;4.00;99.90;;;;;;5066498;28;20444;-70
2023/03/16 03:13:53;;;;;;;12.27;5.85;;;4.00;99.90;;;;;;5082272;28;20036;-70
2023/03/16 03:16:20;;;;;;;11.27;5.72;;;4.00;99.90;;;;;;5080771;28;20495;-71
2023/03/16 03:18:46;;;;;;;13.30;6.10;;;4.10;99.90;;;;;;5066644;28;20040;-71
2023/03/16 03:21:11;;;;;;;8.95;5.45;;;4.10;99.90;;;;;;5081628;28;20036;-71
2023/03/16 03:23:37;;;;;;;11.35;6.60;;;4.10;99.90;;;;;;5065631;28;20362;-70
2023/03/16 03:26:03;;;;;;;14.98;6.60;;;4.10;99.90;;;;;;5060138;28;20040;-71
2023/03/16 03:28:29;;;;;;;10.88;6.10;;;4.10;99.90;;;;;;5074576;28;20048;-71
2023/03/16 03:30:56;;;;;;;10.52;6.97;;;4.10;99.90;;;;;;5062981;28;20116;-70
2023/03/16 03:33:22;;;;;;;14.55;7.20;;;4.10;99.90;;;;;;5080655;28;20185;-70
2023/03/16 03:35:56;;;;;;;11.95;6.70;;;4.10;99.90;;;;;;5063652;28;20555;-71
2023/03/16 03:38:23;;;;;;;12.32;6.70;;;4.10;99.90;;;;;;5078583;28;20138;-71
2023/03/16 03:40:50;;;;;;;11.25;6.40;;;4.10;99.90;;;;;;5084826;28;20039;-70
2023/03/16 03:43:16;;;;;;;16.00;6.93;;;4.10;99.90;;;;;;5046650;28;20095;-70
2023/03/16 03:45:41;;;;;;;13.10;7.38;;;4.10;99.90;;;;;;5082522;28;20082;-71
2023/03/16 03:48:07;;;;;;;8.65;5.43;;;4.10;99.90;;;;;;5074448;28;20045;-70
2023/03/16 03:50:33;;;;;;;10.70;6.57;;;4.10;99.90;;;;;;5065173;28;20032;-71
2023/03/16 03:52:58;;;;;;;12.95;5.47;;;4.10;99.90;;;;;;5043131;28;20422;-71
2023/03/16 03:55:24;;;;;;;13.32;6.32;;;4.20;99.90;;;;;;5083787;28;20036;-71
2023/03/16 03:57:49;;;;;;;13.90;6.97;;;4.20;99.90;;;;;;5075887;28;20045;-71
2023/03/16 04:00:19;;;;;;;10.07;6.28;;;4.20;99.90;;;;;;5078352;28;20133;-71
2023/03/16 04:02:45;;;;;;;9.52;5.47;;;4.20;99.90;;;;;;5077738;28;20049;-71
2023/03/16 04:05:10;;;;;;;10.57;6.25;;;4.20;99.90;;;;;;5063967;28;20044;-71
2023/03/16 04:07:36;;;;;;;11.77;6.47;;;4.20;99.90;;;;;;5084662;28;20126;-71
2023/03/16 04:10:01;;;;;;;10.88;5.75;;;4.30;99.90;;;;;;5083913;28;20040;-72
2023/03/16 04:12:27;;;;;;;11.68;7.00;;;4.20;99.90;;;;;;5086417;28;20114;-72
2023/03/16 04:14:52;;;;;;;14.15;6.55;;;4.30;99.90;;;;;;5067208;28;20052;-72
2023/03/16 04:17:18;;;;;;;9.40;5.75;;;4.30;99.90;;;;;;5074822;28;20043;-72
2023/03/16 04:19:44;;;;;;;12.23;6.18;;;4.30;99.90;;;;;;5062417;28;20400;-72
2023/03/16 04:22:09;;;;;;;12.55;6.97;;;4.40;99.90;;;;;;5084707;28;20204;-71
2023/03/16 04:24:35;;;;;;;12.45;6.85;;;4.40;99.90;;;;;;5084570;28;20511;-71
2023/03/16 04:27:01;;;;;;;8.43;5.28;;;4.30;99.90;;;;;;5081458;28;20036;-70
2023/03/16 04:29:27;;;;;;;11.25;5.95;;;4.40;99.90;;;;;;5086059;28;20028;-71
2023/03/16 04:31:52;;;;;;;11.45;7.22;;;4.30;99.90;;;;;;5083946;28;20531;-71
2023/03/16 04:34:23;;;;;;;10.80;6.15;;;4.40;99.90;;;;;;5082565;28;20089;-70
2023/03/16 04:36:51;;;;;;;11.23;6.93;;;4.40;99.90;;;;;;5084411;28;20189;-70
2023/03/16 04:39:17;;;;;;;11.65;6.35;;;4.30;99.90;;;;;;5052670;28;20139;-72
2023/03/16 04:41:42;;;;;;;11.90;6.30;;;4.30;99.90;;;;;;5053340;28;20039;-71
2023/03/16 04:44:08;;;;;;;9.63;5.97;;;4.40;99.90;;;;;;5066080;28;20859;-71
2023/03/16 04:46:35;;;;;;;11.52;6.90;;;4.40;99.90;;;;;;5081970;28;20043;-71
2023/03/16 04:49:00;;;;;;;12.15;6.15;;;4.40;99.90;;;;;;5085846;28;20090;-70
2023/03/16 04:51:27;;;;;;;13.02;6.72;;;4.30;99.90;;;;;;5082157;28;20476;-71
2023/03/16 04:53:53;;;;;;;14.75;6.35;;;4.30;99.90;;;;;;5067066;28;20055;-71
2023/03/16 04:56:20;;;;;;;10.52;6.00;;;4.40;99.90;;;;;;5066587;28;20051;-70
2023/03/16 04:58:48;;;;;;;10.07;6.00;;;4.30;99.90;;;;;;5051040;28;20441;-71
2023/03/16 05:01:14;;;;;;;8.57;5.30;;;4.40;99.90;;;;;;5066385;28;20386;-70
2023/03/16 05:03:40;;;;;;;14.32;6.72;;;4.30;99.90;;;;;;5084917;28;20059;-72
2023/03/16 05:06:06;;;;;;;11.52;5.75;;;4.30;99.90;;;;;;5065792;28;20039;-70
2023/03/16 05:08:31;;;;;;;9.00;5.55;;;4.30;99.90;;;;;;5087167;28;20446;-71
2023/03/16 05:10:58;;;;;;;16.27;6.53;;;4.40;99.90;;;;;;5086967;28;20126;-71
2023/03/16 05:13:24;;;;;;;10.60;5.65;;;4.40;99.90;;;;;;5065386;28;20107;-71
2023/03/16 05:15:52;;;;;;;11.65;6.10;;;4.30;99.90;;;;;;5088096;28;20035;-70
2023/03/16 05:18:19;;;;;;;10.93;6.03;;;4.40;99.90;;;;;;5053425;28;20408;-70
2023/03/16 05:20:44;;;;;;;11.75;6.47;;;4.40;99.90;;;;;;5081942;28;20036;-72
2023/03/16 05:23:10;;;;;;;12.88;5.97;;;4.40;99.90;;;;;;5043386;28;20047;-70
2023/03/16 05:25:37;;;;;;;11.57;5.18;;;4.40;99.90;;;;;;5066035;28;20424;-71
2023/03/16 05:28:04;;;;;;;11.70;6.05;;;4.40;99.90;;;;;;5060607;28;20122;-71
2023/03/16 05:30:30;;;;;;;10.15;5.82;;;4.50;99.90;;;;;;5043188;28;20037;-71
2023/03/16 05:32:56;;;;;;;9.75;5.78;;;4.50;99.90;;;;;;5058329;28;20041;-70
2023/03/16 05:35:22;;;;;;;10.70;5.20;;;4.50;99.90;;;;;;5037815;28;20439;-71
2023/03/16 05:37:48;;;;;;;12.25;6.03;;;4.50;99.90;;;;;;5031923;28;20081;-71
2023/03/16 05:40:17;;;;;;;10.38;6.15;;;4.50;99.90;;;;;;5057546;28;20091;-71
2023/03/16 05:42:44;;;;;;;10.63;5.80;;;4.50;99.90;;;;;;5059597;28;20094;-70
2023/03/16 05:45:11;;;;;;;12.25;6.32;;;4.50;99.90;;;;;;5040286;28;20535;-71
2023/03/16 05:47:36;;;;;;;10.43;5.63;;;4.50;99.90;;;;;;5034228;28;20068;-71
2023/03/16 05:50:07;;;;;;;12.63;5.90;;;4.50;99.90;;;;;;5041215;28;20496;-71
2023/03/16 05:52:34;;;;;;;10.73;5.28;;;4.50;99.90;;;;;;5055345;28;20045;-70
2023/03/16 05:54:59;;;;;;;13.45;6.03;;;4.50;99.90;;;;;;5035933;28;20098;-71
2023/03/16 05:57:25;;;;;;;12.05;6.40;;;4.50;99.90;;;;;;5036147;28;20057;-70
2023/03/16 05:59:51;;;;;;;11.88;6.47;;;4.50;99.90;;;;;;5034269;28;20048;-71
2023/03/16 06:02:17;;;;;;;12.23;6.40;;;4.50;99.90;;;;;;5061851;28;20456;-71
2023/03/16 06:04:43;;;;;;;12.00;5.88;;;4.50;99.90;;;;;;5058180;28;20120;-71
2023/03/16 06:07:09;;;;;;;12.40;6.03;;;4.50;99.90;;;;;;5046213;28;20037;-71
2023/03/16 06:09:35;;;;;;;11.40;5.80;;;4.50;99.90;;;;;;5048865;28;20068;-71
2023/03/16 06:12:00;;;;;;;10.25;5.20;;;4.50;99.90;;;;;;5041307;28;20138;-71
2023/03/16 06:14:26;;;;;;;10.65;5.20;;;4.50;99.90;;;;;;5041590;28;20032;-71
2023/03/16 06:16:52;;;;;;;10.05;5.80;;;4.50;99.90;;;;;;5020630;28;20502;-71
2023/03/16 06:19:18;;;;;;;10.55;6.35;;;4.40;99.90;;;;;;5037530;28;20044;-71
2023/03/16 06:21:43;;;;;;;10.82;6.68;;;4.50;99.90;;;;;;5055996;28;20037;-71
2023/03/16 06:24:09;;;;;;;10.65;5.72;;;4.50;99.90;;;;;;5060812;28;20057;-70
2023/03/16 06:26:35;;;;;;;10.40;6.32;;;4.50;99.90;;;;;;5082983;28;20050;-70
2023/03/16 06:29:01;;;;;;;9.20;5.40;;;4.50;99.90;;;;;;5067583;28;20036;-70
2023/03/16 06:31:27;;;;;;;12.50;6.32;;;4.50;99.90;;;;;;5072624;28;20035;-70
2023/03/16 06:33:52;;;;;;;9.90;5.00;;;4.50;99.90;;;;;;5066556;28;20036;-70
2023/03/16 06:36:18;;;;;;;10.63;5.97;;;4.60;99.90;;;;;;5048500;28;20405;-71
2023/03/16 06:38:44;;;;;;;10.07;5.15;;;4.60;99.90;;;;;;5056961;28;20037;-70
2023/03/16 06:41:09;;;;;;;12.45;5.70;;;4.60;99.90;;;;;;5083695;28;20077;-71
2023/03/16 06:43:35;;;;;;;9.35;5.40;;;4.60;99.90;;;;;;5082979;28;20126;-71
2023/03/16 06:46:02;;;;;;;12.45;6.28;;;4.60;99.90;;;;;;5083689;28;20480;-70
2023/03/16 06:48:28;;;;;;;10.82;5.05;;;4.70;99.90;;;;;;5085610;28;20044;-70
2023/03/16 06:50:53;;;;;;;12.05;6.15;;;4.70;99.90;;;;;;5077885;28;20047;-71
2023/03/16 06:53:19;;;;;;;12.32;6.50;;;4.70;99.90;;;;;;5064870;28;20081;-70
2023/03/16 06:55:44;;;;;;;10.20;5.75;;;4.70;99.90;;;;;;5066224;28;20377;-70
2023/03/16 06:58:10;;;;;;;11.77;6.32;;;4.80;99.90;;;;;;5061169;28;20394;-70
2023/03/16 07:00:36;;;;;;;10.18;5.47;;;4.80;99.90;;;;;;5065930;28;20442;-70
2023/03/16 07:03:02;;;;;;;13.25;6.00;;;4.90;99.90;;;;;;5083411;28;20432;-70
2023/03/16 07:05:28;;;;;;;9.95;5.63;;;4.80;99.90;;;;;;5065628;28;20119;-71
2023/03/16 07:07:54;;;;;;;10.20;5.30;;;4.90;99.90;;;;;;5075799;28;20356;-70
2023/03/16 07:10:20;;;;;;;11.18;5.60;;;4.90;99.90;;;;;;5078217;28;20406;-70
2023/03/16 07:12:46;;;;;;;10.68;5.45;;;4.90;99.90;;;;;;5081443;28;20085;-70
2023/03/16 07:15:12;;;;;;;9.63;4.97;;;5.00;99.90;;;;;;5083639;28;20040;-70
2023/03/16 07:17:38;;;;;;;11.93;5.95;;;5.00;99.90;;;;;;5062844;28;20036;-70
2023/03/16 07:20:08;;;;;;;10.90;5.70;;;5.00;99.90;;;;;;5080346;28;20085;-70
2023/03/16 07:22:34;;;;;;;10.85;5.38;;;5.00;99.90;;;;;;5077762;28;20051;-71
2023/03/16 07:25:00;;;;;;;8.38;5.25;;;5.10;99.90;;;;;;5062460;28;20138;-71
2023/03/16 07:27:26;;;;;;;11.63;5.57;;;5.10;99.90;;;;;;5081264;28;20044;-70
2023/03/16 07:29:52;;;;;;;8.40;5.20;;;5.10;99.90;;;;;;5067621;28;20032;-70
2023/03/16 07:32:18;;;;;;;11.63;5.93;;;5.10;99.90;;;;;;5062974;28;20106;-70
2023/03/16 07:34:44;;;;;;;10.80;6.03;;;5.20;99.90;;;;;;5084280;28;20124;-70
2023/03/16 07:37:09;;;;;;;10.48;5.70;;;5.20;99.90;;;;;;5064712;28;20281;-70
2023/03/16 07:39:36;;;;;;;8.48;5.18;;;5.20;99.90;;;;;;5065083;28;20076;-70
2023/03/16 07:42:02;;;;;;;11.77;5.57;;;5.20;99.90;;;;;;5083283;28;20089;-70
2023/03/16 07:44:28;;;;;;;9.55;5.75;;;5.20;99.90;;;;;;5066662;28;20032;-70
2023/03/16 07:46:53;;;;;;;10.50;5.35;;;5.30;99.90;;;;;;5068479;28;20082;-70
2023/03/16 07:49:19;;;;;;;8.77;5.57;;;5.30;99.90;;;;;;5070967;28;20039;-70
2023/03/16 07:51:45;;;;;;;12.63;5.70;;;5.30;99.90;;;;;;5087467;28;20105;-70
2023/03/16 07:54:10;;;;;;;12.32;6.15;;;5.30;99.90;;;;;;5069041;28;20130;-70
2023/03/16 07:56:36;;;;;;;7.65;4.70;;;5.40;99.90;;;;;;5070742;28;20430;-70
2023/03/16 07:59:02;;;;;;;11.30;5.15;;;5.40;99.90;;;;;;5068982;28;20048;-71
2023/03/16 08:01:28;;;;;;;12.30;5.47;;;5.30;99.90;;;;;;5061205;28;20043;-70
2023/03/16 08:03:53;;;;;;;10.82;5.22;;;5.30;99.90;;;;;;5050340;28;20637;-71
2023/03/16 08:06:20;;;;;;;10.98;5.45;;;5.30;99.90;;;;;;5064685;28;20052;-70
2023/03/16 08:08:46;;;;;;;10.98;6.05;;;5.20;99.90;;;;;;5066229;28;20076;-70
2023/03/16 08:11:12;;;;;;;11.52;5.95;;;5.20;99.90;;;;;;5049373;28;20040;-70
2023/03/16 08:13:38;;;;;;;11.15;5.72;;;5.20;99.90;;;;;;5075897;28;20089;-70
2023/03/16 08:16:04;;;;;;;10.93;5.70;;;5.20;99.90;;;;;;5058610;28;20052;-70
2023/03/16 08:18:30;;;;;;;9.57;5.75;;;5.30;99.90;;;;;;5079292;28;20400;-70
2023/03/16 08:20:57;;;;;;;10.35;5.82;;;5.20;99.90;;;;;;5076296;28;20043;-70
2023/03/16 08:23:24;;;;;;;9.80;5.45;;;5.20;99.90;;;;;;5061336;28;20059;-69
2023/03/16 08:25:55;;;;;;;14.07;5.60;;;5.30;99.90;;;;;;5055700;28;20044;-71
2023/03/16 08:28:20;;;;;;;9.63;5.85;;;5.20;99.90;;;;;;5075739;28;20097;-71
2023/03/16 08:30:52;;;;;;;11.10;5.35;;;5.30;99.90;;;;;;5056098;28;20131;-70
2023/03/16 08:33:19;;;;;;;8.82;4.78;;;5.30;99.90;;;;;;5065690;28;21174;-70
2023/03/16 08:35:46;;;;;;;8.50;5.60;;;5.30;99.90;;;;;;5069407;28;20031;-71
2023/03/16 08:38:13;;;;;;;10.65;5.40;;;5.30;99.90;;;;;;5063854;28;20519;-71
2023/03/16 08:40:47;;;;;;;13.07;6.20;;;5.30;99.90;;;;;;5056798;28;20040;-71
2023/03/16 08:43:14;;;;;;;11.48;5.65;;;5.30;99.90;;;;;;5060354;28;20048;-71
2023/03/16 08:45:39;;;;;;;10.63;5.90;;;5.30;99.90;;;;;;5063789;28;20035;-71
2023/03/16 08:48:06;;;;;;;11.48;5.75;;;5.30;99.90;;;;;;5046226;28;20052;-71
2023/03/16 08:50:32;;;;;;;13.88;5.68;;;5.40;99.90;;;;;;5058636;28;20040;-70
2023/03/16 08:52:58;;;;;;;10.73;5.60;;;5.40;99.90;;;;;;5050059;28;20046;-70
2023/03/16 08:55:24;;;;;;;10.90;5.10;;;5.40;99.90;;;;;;5052385;28;20353;-70
2023/03/16 08:57:49;;;;;;;10.52;6.28;;;5.30;99.90;;;;;;5054355;28;20051;-71
2023/03/16 09:00:16;;;;;;;9.02;4.47;;;5.40;99.90;;;;;;5070208;28;20040;-70
2023/03/16 09:02:43;;;;;;;11.57;6.47;;;5.40;99.90;;;;;;5072032;28;20124;-70
2023/03/16 09:05:10;;;;;;;10.43;5.88;;;5.30;99.90;;;;;;5056115;28;20123;-71
2023/03/16 09:07:36;;;;;;;9.43;5.40;;;5.30;99.90;;;;;;5058690;28;20082;-70
2023/03/16 09:10:04;;;;;;;10.85;5.75;;;5.30;99.90;;;;;;5049331;28;20040;-71
2023/03/16 09:12:31;;;;;;;7.95;4.53;;;5.40;99.90;;;;;;5055318;28;20041;-70
2023/03/16 09:14:57;;;;;;;9.38;5.07;;;5.40;99.90;;;;;;5073587;28;20048;-70
2023/03/16 09:17:22;;;;;;;10.40;5.90;;;5.40;99.90;;;;;;5075788;28;20094;-70
2023/03/16 09:19:48;;;;;;;9.77;5.70;;;5.40;99.90;;;;;;5057633;28;20038;-71
2023/03/16 09:22:14;;;;;;;11.52;6.22;;;5.40;99.90;;;;;;5059908;28;20055;-70
2023/03/16 09:24:40;;;;;;;12.77;6.07;;;5.40;99.90;;;;;;5076094;28;20075;-70
2023/03/16 09:27:06;;;;;;;11.70;6.15;;;5.40;99.90;;;;;;5066442;28;20040;-69
2023/03/16 09:29:32;;;;;;;11.43;6.35;;;5.50;99.90;;;;;;5087795;28;20071;-70
2023/03/16 09:31:58;;;;;;;10.65;5.57;;;5.60;99.90;;;;;;5086360;28;20071;-70
2023/03/16 09:34:23;;;;;;;10.65;6.35;;;5.60;99.90;;;;;;5068501;28;20079;-70
2023/03/16 09:36:49;;;;;;;11.43;6.75;;;5.70;99.90;;;;;;5067044;28;20068;-70
2023/03/16 09:39:15;;;;;;;10.68;6.05;;;5.70;99.90;;;;;;5066149;28;20044;-70
2023/03/16 09:41:40;;;;;;;11.88;6.43;;;5.80;99.90;;;;;;5085796;28;20044;-70
2023/03/16 09:44:11;;;;;;;11.05;5.63;;;5.80;99.90;;;;;;5078883;28;20068;-70
2023/03/16 09:46:43;;;;;;;11.57;6.13;;;5.80;99.90;;;;;;5086224;28;20095;-70
2023/03/16 09:49:11;;;;;;;11.10;5.70;;;5.80;99.90;;;;;;5067690;28;20048;-70
2023/03/16 09:51:49;;;;;;;12.05;6.55;;;5.80;99.90;;;;;;5067667;28;20489;-70
2023/03/16 09:54:28;;;;;;;11.00;6.22;;;5.80;99.90;;;;;;5066774;28;20162;-70
2023/03/16 09:56:55;;;;;;;12.88;6.40;;;5.80;99.90;;;;;;5063286;28;20460;-70
2023/03/16 09:59:22;;;;;;;11.48;6.00;;;5.90;99.90;;;;;;5084062;28;20040;-70
2023/03/16 10:02:45;;;;;;;12.15;6.00;;;5.90;99.90;;;;;;5082234;28;20036;-70
2023/03/16 10:05:14;;;;;;;13.75;6.40;;;5.90;99.90;;;;;;5005711;28;20037;-70
2023/03/16 10:07:52;;;;;;;11.57;5.50;;;5.90;99.90;;;;;;5006417;28;20053;-70
2023/03/16 10:10:44;;;;;;;9.85;6.20;;;5.90;99.90;;;;;;5021386;28;20057;-70
2023/03/16 10:13:38;;;;;;;12.50;5.95;;;5.90;99.90;;;;;;5003867;28;20053;-70
2023/03/16 10:16:17;;;;;;;13.18;6.65;;;5.90;99.90;;;;;;5005953;28;20104;-70
2023/03/16 10:18:49;;;;;;;9.43;5.25;;;5.90;99.90;;;;;;5010431;28;20052;-70
2023/03/16 10:21:18;;;;;;;10.27;5.63;;;5.90;99.90;;;;;;5023650;28;20069;-70
2023/03/16 10:23:47;;;;;;;9.75;5.53;;;5.90;99.90;;;;;;5006836;28;20049;-70
2023/03/16 10:26:27;;;;;;;11.18;6.20;;;5.90;99.90;;;;;;5004518;28;20050;-70
2023/03/16 10:28:53;;;;;;;12.23;6.05;;;5.90;99.90;;;;;;5021663;28;20053;-70
2023/03/16 10:31:21;;;;;;;12.20;6.07;;;5.90;99.90;;;;;;5018281;28;20053;-71
2023/03/16 10:33:50;;;;;;;10.38;5.68;;;5.90;99.90;;;;;;5021647;28;20048;-70
2023/03/16 10:36:32;;;;;;;12.02;6.53;;;5.90;99.90;;;;;;5031350;28;20036;-70
2023/03/16 10:39:06;;;;;;;10.50;5.72;;;6.00;99.90;;;;;;5078191;28;20047;-70
2023/03/16 10:41:39;;;;;;;9.68;5.07;;;6.00;99.90;;;;;;5082472;28;20032;-70
2023/03/16 10:44:11;;;;;;;12.23;5.60;;;6.00;99.90;;;;;;5065055;28;20487;-70
2023/03/16 10:46:49;;;;;;;11.48;5.50;;;6.00;99.90;;;;;;5081537;28;20040;-70
2023/03/16 10:49:28;;;;;;;10.77;5.90;;;6.00;99.90;;;;;;5085788;28;20039;-71
2023/03/16 10:51:59;;;;;;;11.02;5.55;;;6.10;99.90;;;;;;5059147;28;20383;-71
2023/03/16 10:54:30;;;;;;;12.00;5.55;;;6.10;99.90;;;;;;5063668;28;20365;-70
2023/03/16 10:56:57;;;;;;;9.77;5.32;;;6.10;99.90;;;;;;5066148;28;20605;-70
2023/03/16 10:59:37;;;;;;;13.43;5.53;;;6.20;99.90;;;;;;5064683;28;20047;-70
2023/03/16 11:02:29;;;;;;;11.68;5.47;;;6.20;99.90;;;;;;5085873;28;20043;-70
2023/03/16 11:04:56;;;;;;;10.40;5.60;;;6.30;99.90;;;;;;5040978;28;20048;-70
2023/03/16 11:07:23;;;;;;;10.82;5.15;;;6.40;99.90;;;;;;5032717;28;20122;-70
2023/03/16 11:09:51;;;;;;;7.82;4.93;;;6.40;99.90;;;;;;5065762;28;20044;-71
2023/03/16 11:12:30;;;;;;;9.02;4.70;;;6.50;99.90;;;;;;5074157;28;20488;-70
2023/03/16 11:15:04;;;;;;;11.90;5.03;;;6.60;99.90;;;;;;5062641;28;20036;-70
2023/03/16 11:17:42;;;;;;;10.10;5.13;;;6.70;99.90;;;;;;5086334;28;20098;-71
2023/03/16 11:20:17;;;;;;;9.75;5.00;;;6.80;99.90;;;;;;5066209;28;20055;-71
2023/03/16 11:22:45;;;;;;;9.88;5.05;;;6.80;99.90;;;;;;5078042;28;20130;-71
2023/03/16 11:25:27;;;;;;;11.25;5.05;;;6.90;99.90;;;;;;5066655;28;20059;-71
2023/03/16 11:28:11;;;;;;;11.20;5.22;;;7.00;99.90;;;;;;5070039;28;20093;-70
2023/03/16 11:30:58;;;;;;;10.20;5.72;;;7.00;99.90;;;;;;5088305;28;20039;-71
2023/03/16 11:33:26;;;;;;;9.65;4.38;;;7.10;99.90;;;;;;5066526;28;20252;-70
2023/03/16 11:36:06;;;;;;;8.80;4.80;;;7.20;99.90;;;;;;5076082;28;20114;-70
2023/03/16 11:38:51;;;;;;;10.25;5.03;;;7.20;99.90;;;;;;5084462;28;20089;-71
2023/03/16 11:41:27;;;;;;;9.93;5.00;;;7.30;99.90;;;;;;5069891;28;20078;-71
2023/03/16 11:44:09;;;;;;;10.23;4.78;;;7.40;99.90;;;;;;5087826;28;20074;-71
2023/03/16 11:47:02;;;;;;;13.02;6.10;;;7.50;99.90;;;;;;5070400;28;20119;-71
2023/03/16 11:49:58;;;;;;;7.43;4.35;;;7.60;99.90;;;;;;5068020;28;20036;-71
2023/03/16 11:53:08;;;;;;;11.57;5.20;;;7.70;99.90;;;;;;5053898;28;20106;-71
2023/03/16 11:55:34;;;;;;;9.02;4.32;;;7.70;99.90;;;;;;4992915;28;20394;-71
2023/03/16 11:58:06;;;;;;;7.95;4.30;;;7.80;99.90;;;;;;5050487;28;20060;-71
2023/03/16 12:01:11;;;;;;;8.88;4.95;;;7.80;99.90;;;;;;5083719;28;20039;-71
2023/03/16 12:04:00;;;;;;;10.82;5.10;;;7.90;99.90;;;;;;5081528;28;20059;-70
2023/03/16 12:06:59;;;;;;;6.28;3.83;;;8.10;99.90;;;;;;5042232;28;20052;-70
2023/03/16 12:10:05;;;;;;;6.55;3.53;;;8.30;99.90;;;;;;5082700;28;20046;-70
2023/03/16 12:12:42;;;;;;;9.52;4.30;;;8.50;99.90;;;;;;5077773;28;20036;-70
2023/03/16 12:15:21;;;;;;;9.60;5.00;;;8.50;99.90;;;;;;5076521;28;20648;-70
2023/03/16 12:17:50;;;;;;;8.18;4.82;;;8.50;99.90;;;;;;5061764;28;20051;-70
2023/03/16 12:20:26;;;;;;;12.27;5.10;;;8.60;99.90;;;;;;5084723;28;20035;-70
2023/03/16 12:22:59;;;;;;;8.77;4.18;;;8.60;99.90;;;;;;5083548;28;20040;-70
2023/03/16 12:25:30;;;;;;;7.88;4.43;;;8.70;99.90;;;;;;5065831;28;20166;-70
2023/03/16 12:27:59;;;;;;;8.27;4.60;;;8.80;99.90;;;;;;5067702;28;20051;-71
2023/03/16 12:30:58;;;;;;;7.35;4.57;;;8.80;99.90;;;;;;5052990;28;20601;-70
2023/03/16 12:33:52;;;;;;;7.55;4.32;;;9.00;99.90;;;;;;5055637;28;20105;-70
2023/03/16 12:36:37;;;;;;;9.55;4.88;;;9.00;99.90;;;;;;5050572;28;20415;-70
2023/03/16 12:39:12;;;;;;;6.68;4.28;;;9.10;99.90;;;;;;5088174;28;20452;-70
2023/03/16 12:41:52;;;;;;;7.53;4.10;;;9.10;99.90;;;;;;5069002;28;20113;-70
2023/03/16 12:44:30;;;;;;;8.68;4.55;;;9.10;99.90;;;;;;5087821;28;20400;-70
2023/03/16 12:47:14;;;;;;;10.43;4.43;;;9.20;99.90;;;;;;5064652;28;20043;-70
2023/03/16 12:49:40;;;;;;;9.90;5.00;;;9.20;99.90;;;;;;5059376;28;20153;-71
2023/03/16 12:52:12;;;;;;;7.32;3.72;;;9.20;99.90;;;;;;5087092;28;21485;-71
2023/03/16 12:54:50;;;;;;;7.88;4.00;;;9.20;99.90;;;;;;5062454;28;20048;-71
2023/03/16 12:57:17;;;;;;;8.77;4.55;;;9.10;99.90;;;;;;5062707;28;20058;-71
2023/03/16 12:59:46;;;;;;;9.13;4.68;;;9.10;99.90;;;;;;5091767;28;20074;-72
2023/03/16 13:02:33;;;;;;;8.43;4.38;;;9.20;99.90;;;;;;5066380;28;20044;-71
2023/03/16 13:05:11;;;;;;;7.40;3.80;;;9.20;99.90;;;;;;5062648;28;20047;-71